Time;durP1;ratioP1;P1;durP2;ratioP2;P2;SDS_P1;SDS_P2;PMS_P1;PMS_P2;Temp;Humidity;BMP_temperature;BMP_pressure;BME280_temperature;BME280_humidity;BME280_pressure;Samples;Min_cycle;Max_cycle;Signal;HPM_P1;HPM_P2
2021/09/17 00:00:02;;;;;;;32.73;30.00;;;12.30;99.90;;;;;;5049312;28;20469;-67
2021/09/17 00:02:29;;;;;;;29.20;26.70;;;12.20;99.90;;;;;;5037666;28;20491;-68
2021/09/17 00:04:57;;;;;;;35.63;32.23;;;12.10;99.90;;;;;;5035636;28;22492;-67
2021/09/17 00:07:24;;;;;;;35.17;32.10;;;12.00;99.90;;;;;;5041762;28;20460;-71
2021/09/17 00:09:51;;;;;;;34.80;31.67;;;12.00;99.90;;;;;;5045483;28;20828;-69
2021/09/17 00:12:20;;;;;;;39.03;35.10;;;12.00;99.90;;;;;;5054734;28;20456;-70
2021/09/17 00:14:49;;;;;;;34.17;31.30;;;11.90;99.90;;;;;;5042111;28;20927;-70
2021/09/17 00:17:16;;;;;;;35.57;32.20;;;11.90;99.90;;;;;;5043295;28;20447;-68
2021/09/17 00:19:44;;;;;;;44.57;39.97;;;11.80;99.90;;;;;;5040304;28;20475;-68
2021/09/17 00:22:11;;;;;;;33.50;30.50;;;11.80;99.90;;;;;;5044035;28;20487;-68
2021/09/17 00:24:38;;;;;;;41.13;37.10;;;11.80;99.90;;;;;;5049241;28;20476;-68
2021/09/17 00:27:05;;;;;;;45.30;40.10;;;11.70;99.90;;;;;;5048021;28;20470;-68
2021/09/17 00:29:33;;;;;;;35.87;32.40;;;11.70;99.90;;;;;;5047800;28;20490;-71
2021/09/17 00:32:02;;;;;;;33.70;30.60;;;11.70;99.90;;;;;;5040340;28;20456;-68
2021/09/17 00:34:29;;;;;;;41.37;37.33;;;11.70;99.90;;;;;;5036057;28;20488;-70
2021/09/17 00:36:56;;;;;;;31.43;28.70;;;11.80;99.90;;;;;;5037556;28;20811;-69
2021/09/17 00:39:24;;;;;;;34.60;31.20;;;11.80;99.90;;;;;;5053846;28;20456;-68
2021/09/17 00:41:51;;;;;;;35.93;32.43;;;11.80;99.90;;;;;;5040058;28;20538;-68
2021/09/17 00:44:24;;;;;;;47.63;41.87;;;11.90;99.90;;;;;;5047398;28;20470;-68
2021/09/17 00:46:51;;;;;;;55.80;44.63;;;12.00;99.90;;;;;;5036931;28;20468;-69
2021/09/17 00:49:20;;;;;;;48.90;43.67;;;12.20;99.90;;;;;;5039788;28;20460;-68
2021/09/17 00:51:49;;;;;;;56.00;45.67;;;12.40;99.90;;;;;;5037599;28;20965;-68
2021/09/17 00:54:18;;;;;;;56.83;44.80;;;12.50;99.90;;;;;;5040439;28;20464;-69
2021/09/17 00:56:45;;;;;;;47.67;42.70;;;12.60;99.90;;;;;;5047009;28;20466;-70
2021/09/17 00:59:13;;;;;;;48.47;43.20;;;12.80;99.90;;;;;;5035332;28;20456;-71
2021/09/17 01:01:40;;;;;;;53.03;45.50;;;12.80;99.90;;;;;;5041713;28;20475;-68
2021/09/17 01:04:10;;;;;;;48.43;42.90;;;13.00;99.90;;;;;;5048858;28;20526;-68
2021/09/17 01:06:40;;;;;;;38.17;34.40;;;13.10;99.90;;;;;;5032909;28;20460;-67
2021/09/17 01:09:08;;;;;;;49.13;43.23;;;13.10;99.90;;;;;;5041681;28;20471;-68
2021/09/17 01:11:35;;;;;;;54.13;44.13;;;13.20;99.90;;;;;;5036891;28;20463;-68
2021/09/17 01:14:04;;;;;;;49.17;43.90;;;13.30;99.90;;;;;;5040105;28;20466;-69
2021/09/17 01:16:32;;;;;;;50.23;44.83;;;13.40;99.90;;;;;;5050351;28;20495;-68
2021/09/17 01:18:59;;;;;;;37.77;34.10;;;13.40;99.90;;;;;;5047581;28;20463;-68
2021/09/17 01:21:28;;;;;;;44.27;39.90;;;13.40;99.90;;;;;;5040225;28;20511;-69
2021/09/17 01:23:56;;;;;;;44.93;39.20;;;13.40;99.90;;;;;;5037633;28;20460;-69
2021/09/17 01:26:23;;;;;;;44.80;40.20;;;13.40;99.90;;;;;;5037041;28;20678;-67
2021/09/17 01:28:50;;;;;;;45.60;40.93;;;13.40;99.90;;;;;;5044689;28;20502;-68
2021/09/17 01:31:18;;;;;;;46.13;41.33;;;13.50;99.90;;;;;;5051800;28;20502;-70
2021/09/17 01:33:46;;;;;;;46.90;40.30;;;13.60;99.90;;;;;;5034217;28;20488;-68
2021/09/17 01:36:13;;;;;;;48.37;43.43;;;13.70;99.90;;;;;;5036200;28;20495;-68
2021/09/17 01:38:43;;;;;;;46.70;40.00;;;13.70;99.90;;;;;;5036245;28;20476;-70
2021/09/17 01:41:11;;;;;;;43.50;38.77;;;13.70;99.90;;;;;;5034787;28;20476;-69
2021/09/17 01:43:38;;;;;;;46.43;42.03;;;13.60;99.90;;;;;;5037333;28;20482;-69
2021/09/17 01:46:05;;;;;;;46.77;41.97;;;13.70;99.90;;;;;;5035725;28;20444;-69
2021/09/17 01:48:33;;;;;;;47.77;42.67;;;13.80;99.90;;;;;;5047118;28;20465;-68
2021/09/17 01:51:02;;;;;;;48.23;43.40;;;13.90;99.90;;;;;;5044159;28;20466;-70
2021/09/17 01:53:29;;;;;;;46.03;41.23;;;13.90;99.90;;;;;;5040731;28;20468;-71
2021/09/17 01:55:57;;;;;;;46.00;41.47;;;14.00;99.90;;;;;;5049459;28;20456;-71
2021/09/17 01:58:24;;;;;;;45.10;40.30;;;13.90;99.90;;;;;;5050601;28;20465;-68
2021/09/17 02:00:52;;;;;;;52.60;41.27;;;14.00;99.90;;;;;;5044917;28;20942;-69
2021/09/17 02:03:19;;;;;;;44.73;40.03;;;14.00;99.90;;;;;;5038690;28;20985;-70
2021/09/17 02:05:46;;;;;;;45.67;40.60;;;13.90;99.90;;;;;;5044883;28;20470;-68
2021/09/17 02:08:14;;;;;;;44.93;40.37;;;13.90;99.90;;;;;;5049863;28;20456;-69
2021/09/17 02:10:41;;;;;;;44.70;40.13;;;14.00;99.90;;;;;;5054572;28;20451;-69
2021/09/17 02:13:11;;;;;;;48.10;41.40;;;14.00;99.90;;;;;;5046262;28;20464;-68
2021/09/17 02:15:39;;;;;;;44.23;39.60;;;14.00;99.90;;;;;;5042427;28;20487;-68
2021/09/17 02:18:05;;;;;;;42.20;37.90;;;13.90;99.90;;;;;;5040446;28;20447;-68
2021/09/17 02:20:32;;;;;;;44.13;39.67;;;14.00;99.90;;;;;;5044994;28;20460;-68
2021/09/17 02:22:59;;;;;;;47.70;39.77;;;14.00;99.90;;;;;;5046009;28;20483;-68
2021/09/17 02:25:26;;;;;;;43.43;39.20;;;14.00;99.90;;;;;;5043304;28;20462;-69
2021/09/17 02:27:53;;;;;;;46.43;38.57;;;13.90;99.90;;;;;;5047905;28;20456;-69
2021/09/17 02:30:22;;;;;;;42.23;37.67;;;14.00;99.90;;;;;;5043904;28;20806;-68
2021/09/17 02:32:48;;;;;;;47.90;40.10;;;14.00;99.90;;;;;;5045778;28;20463;-70
2021/09/17 02:35:16;;;;;;;42.40;38.07;;;14.00;99.90;;;;;;5041992;28;20842;-68
2021/09/17 02:37:44;;;;;;;42.83;38.43;;;14.10;99.90;;;;;;5037750;28;20496;-68
2021/09/17 02:40:14;;;;;;;42.37;37.87;;;14.00;99.90;;;;;;5045711;28;20460;-68
2021/09/17 02:42:43;;;;;;;42.93;38.53;;;14.10;99.90;;;;;;5043271;28;20523;-72
2021/09/17 02:45:11;;;;;;;40.30;36.50;;;14.20;99.90;;;;;;5043368;28;20515;-69
2021/09/17 02:47:42;;;;;;;41.57;37.07;;;14.20;99.90;;;;;;5044041;28;20464;-71
2021/09/17 02:50:10;;;;;;;43.77;38.50;;;14.10;99.90;;;;;;5041915;28;20562;-68
2021/09/17 02:52:38;;;;;;;44.47;39.87;;;14.00;99.90;;;;;;5036872;28;20551;-71
2021/09/17 02:55:06;;;;;;;43.53;39.00;;;14.00;99.90;;;;;;5046995;28;20479;-72
2021/09/17 02:57:33;;;;;;;42.33;37.97;;;14.20;99.90;;;;;;5046584;28;20543;-70
2021/09/17 03:00:00;;;;;;;43.70;38.90;;;14.20;99.90;;;;;;5042086;28;20483;-68
2021/09/17 03:02:29;;;;;;;43.33;38.20;;;14.10;99.90;;;;;;5041862;28;20504;-68
2021/09/17 03:04:59;;;;;;;43.27;38.57;;;14.20;99.90;;;;;;5044735;28;20519;-70
2021/09/17 03:07:25;;;;;;;48.17;38.10;;;14.10;99.90;;;;;;5045273;28;20463;-68
2021/09/17 03:09:54;;;;;;;40.43;36.23;;;14.10;99.90;;;;;;5042340;28;20487;-69
2021/09/17 03:12:21;;;;;;;41.63;37.43;;;14.20;99.90;;;;;;5038884;28;20464;-69
2021/09/17 03:14:48;;;;;;;40.30;36.47;;;14.10;99.90;;;;;;5055997;28;20453;-68
2021/09/17 03:17:15;;;;;;;42.83;38.20;;;14.00;99.90;;;;;;5036329;28;20474;-71
2021/09/17 03:19:43;;;;;;;44.27;39.63;;;14.00;99.90;;;;;;5048687;28;20463;-68
2021/09/17 03:22:12;;;;;;;48.73;39.03;;;14.00;99.90;;;;;;5048670;28;20491;-68
2021/09/17 03:24:39;;;;;;;41.90;37.53;;;14.10;99.90;;;;;;5048880;28;20485;-70
2021/09/17 03:27:06;;;;;;;43.70;39.40;;;14.20;99.90;;;;;;5040899;28;20534;-68
2021/09/17 03:29:33;;;;;;;43.40;37.70;;;14.10;99.90;;;;;;5043124;28;20451;-69
2021/09/17 03:32:01;;;;;;;44.03;38.53;;;14.10;99.90;;;;;;5046364;28;20875;-68
2021/09/17 03:34:28;;;;;;;42.30;37.63;;;14.10;99.90;;;;;;5038549;28;20487;-68
2021/09/17 03:36:56;;;;;;;43.27;38.90;;;14.20;99.90;;;;;;5051233;28;20822;-70
2021/09/17 03:39:24;;;;;;;41.70;37.20;;;14.30;99.90;;;;;;5050686;28;20460;-68
2021/09/17 03:41:52;;;;;;;41.47;37.30;;;14.30;99.90;;;;;;5047950;28;20500;-71
2021/09/17 03:44:22;;;;;;;39.87;36.03;;;14.40;99.90;;;;;;5056666;28;20467;-71
2021/09/17 03:46:50;;;;;;;42.13;38.00;;;14.30;99.90;;;;;;5044945;28;20455;-69
2021/09/17 03:49:17;;;;;;;50.50;37.97;;;14.30;99.90;;;;;;5042683;28;20496;-70
2021/09/17 03:51:43;;;;;;;42.03;37.80;;;14.20;99.90;;;;;;5038892;28;20927;-72
2021/09/17 03:54:10;;;;;;;40.03;35.70;;;14.30;99.90;;;;;;5042918;28;20456;-71
2021/09/17 03:56:39;;;;;;;41.77;37.30;;;14.30;99.90;;;;;;5050290;28;20461;-68
2021/09/17 03:59:06;;;;;;;40.97;36.57;;;14.40;99.90;;;;;;5057199;28;20506;-68
2021/09/17 04:01:34;;;;;;;40.80;36.60;;;14.40;99.90;;;;;;5045757;28;20452;-68
2021/09/17 04:04:00;;;;;;;42.83;38.33;;;14.30;99.90;;;;;;5040118;28;20468;-70
2021/09/17 04:06:28;;;;;;;43.20;38.80;;;14.30;99.90;;;;;;5042385;28;20467;-71
2021/09/17 04:08:57;;;;;;;42.10;37.63;;;14.40;99.90;;;;;;5044336;28;20511;-68
2021/09/17 04:11:23;;;;;;;46.47;38.67;;;14.40;99.90;;;;;;5049784;28;20455;-69
2021/09/17 04:13:52;;;;;;;42.70;38.30;;;14.40;99.90;;;;;;5048052;28;20465;-70
2021/09/17 04:16:20;;;;;;;44.90;40.27;;;14.40;99.90;;;;;;5048298;28;20961;-70
2021/09/17 04:18:48;;;;;;;45.47;40.97;;;14.50;99.90;;;;;;5045073;28;20560;-70
2021/09/17 04:21:15;;;;;;;46.80;41.00;;;14.50;99.90;;;;;;5039812;28;20482;-68
2021/09/17 04:23:44;;;;;;;41.03;36.53;;;14.50;99.90;;;;;;5045150;28;20829;-68
2021/09/17 04:26:11;;;;;;;42.90;38.50;;;14.40;99.90;;;;;;5038672;28;20461;-69
2021/09/17 04:28:39;;;;;;;42.90;38.70;;;14.50;99.90;;;;;;5044676;28;20471;-68
2021/09/17 04:31:10;;;;;;;42.00;37.67;;;14.50;99.90;;;;;;5044415;28;20807;-69
2021/09/17 04:33:37;;;;;;;43.57;39.27;;;14.50;99.90;;;;;;5045531;28;21141;-71
2021/09/17 04:36:06;;;;;;;45.77;41.27;;;14.60;99.90;;;;;;5043376;28;20453;-71
2021/09/17 04:38:33;;;;;;;46.63;41.93;;;14.60;99.90;;;;;;5044788;28;20470;-68
2021/09/17 04:41:00;;;;;;;46.40;40.93;;;14.50;99.90;;;;;;5038129;28;20452;-69
2021/09/17 04:43:28;;;;;;;49.10;43.87;;;14.40;99.90;;;;;;5041108;28;21086;-67
2021/09/17 04:45:55;;;;;;;47.07;41.97;;;14.30;99.90;;;;;;5043359;28;20468;-71
2021/09/17 04:48:23;;;;;;;46.60;41.77;;;14.40;99.90;;;;;;5040939;28;20459;-68
2021/09/17 04:50:50;;;;;;;49.00;41.43;;;14.40;99.90;;;;;;5041359;28;20471;-68
2021/09/17 04:53:17;;;;;;;44.03;39.77;;;14.40;99.90;;;;;;5043096;28;20852;-70
2021/09/17 04:55:44;;;;;;;44.33;39.60;;;14.40;99.90;;;;;;5038583;28;20819;-68
2021/09/17 04:58:11;;;;;;;44.40;39.90;;;14.40;99.90;;;;;;5042688;28;20509;-68
2021/09/17 05:00:39;;;;;;;44.23;39.47;;;14.40;99.90;;;;;;5038122;28;20470;-71
2021/09/17 05:03:06;;;;;;;44.10;39.70;;;14.60;99.90;;;;;;5044397;28;20510;-69
2021/09/17 05:05:35;;;;;;;46.23;41.40;;;14.60;99.90;;;;;;5037254;28;20459;-69
2021/09/17 05:08:03;;;;;;;46.33;40.73;;;14.70;99.90;;;;;;5036747;28;20838;-68
2021/09/17 05:10:30;;;;;;;46.70;41.00;;;14.70;99.90;;;;;;5032959;28;21004;-72
2021/09/17 05:12:57;;;;;;;44.20;39.60;;;14.70;99.90;;;;;;5050248;28;20919;-69
2021/09/17 05:15:25;;;;;;;45.67;41.27;;;14.70;99.90;;;;;;5034158;28;20468;-68
2021/09/17 05:17:54;;;;;;;44.10;39.43;;;14.70;99.90;;;;;;5042447;28;20974;-68
2021/09/17 05:20:22;;;;;;;43.83;39.40;;;14.70;99.90;;;;;;5040231;28;20514;-69
2021/09/17 05:22:50;;;;;;;43.10;38.73;;;14.80;99.90;;;;;;5035899;28;20475;-70
2021/09/17 05:25:17;;;;;;;43.57;39.20;;;14.80;99.90;;;;;;5038049;28;20460;-68
2021/09/17 05:27:45;;;;;;;44.07;39.50;;;14.90;99.90;;;;;;5038840;28;20453;-68
2021/09/17 05:30:12;;;;;;;42.37;38.23;;;14.90;99.90;;;;;;5044538;28;20769;-68
2021/09/17 05:32:40;;;;;;;41.63;37.47;;;14.90;99.90;;;;;;5033030;28;20759;-69
2021/09/17 05:35:08;;;;;;;38.60;34.70;;;14.90;99.90;;;;;;5044293;28;20483;-71
2021/09/17 05:37:36;;;;;;;40.33;36.13;;;14.90;99.90;;;;;;5039023;28;20440;-69
2021/09/17 05:40:05;;;;;;;40.17;36.03;;;14.90;99.90;;;;;;5037837;28;20457;-71
2021/09/17 05:42:32;;;;;;;41.73;37.37;;;14.90;99.90;;;;;;5038389;28;20484;-68
2021/09/17 05:45:00;;;;;;;40.90;36.60;;;14.90;99.90;;;;;;5041839;28;20466;-68
2021/09/17 05:47:27;;;;;;;38.87;35.30;;;15.00;99.90;;;;;;5037933;28;20463;-68
2021/09/17 05:49:54;;;;;;;41.90;37.80;;;14.90;99.90;;;;;;5039163;28;20456;-70
2021/09/17 05:52:22;;;;;;;44.23;38.60;;;15.00;99.90;;;;;;5040066;28;20488;-68
2021/09/17 05:54:50;;;;;;;40.80;37.00;;;15.00;99.90;;;;;;5041615;28;20495;-71
2021/09/17 05:57:18;;;;;;;43.53;39.27;;;15.00;99.90;;;;;;5050507;28;20464;-69
2021/09/17 05:59:45;;;;;;;39.93;36.10;;;15.00;99.90;;;;;;5039471;28;20897;-68
2021/09/17 06:02:13;;;;;;;41.77;37.80;;;15.10;99.90;;;;;;5033418;28;21050;-69
2021/09/17 06:04:40;;;;;;;41.40;37.20;;;15.20;99.90;;;;;;5037725;28;20902;-69
2021/09/17 06:07:07;;;;;;;40.57;36.90;;;15.30;99.90;;;;;;5036989;28;21020;-68
2021/09/17 06:09:36;;;;;;;41.87;37.47;;;15.30;99.90;;;;;;5036200;28;20483;-69
2021/09/17 06:12:04;;;;;;;41.60;37.20;;;15.40;99.90;;;;;;5030941;28;20471;-68
2021/09/17 06:14:32;;;;;;;42.90;38.50;;;15.50;99.90;;;;;;5041108;28;20812;-71
2021/09/17 06:17:00;;;;;;;40.77;36.77;;;15.60;99.90;;;;;;5040385;28;20452;-69
2021/09/17 06:19:28;;;;;;;42.30;38.10;;;15.60;99.90;;;;;;5035227;28;20455;-68
2021/09/17 06:21:55;;;;;;;41.93;34.83;;;15.60;99.90;;;;;;5035810;28;20496;-68
2021/09/17 06:24:22;;;;;;;41.90;37.40;;;15.60;99.90;;;;;;5040762;28;20491;-69
2021/09/17 06:26:49;;;;;;;43.20;38.70;;;15.70;99.90;;;;;;5043247;28;20469;-68
2021/09/17 06:29:17;;;;;;;43.53;39.20;;;15.70;99.90;;;;;;5037160;28;20460;-69
2021/09/17 06:31:45;;;;;;;41.60;37.30;;;15.80;99.90;;;;;;5034571;28;20551;-68
2021/09/17 06:34:12;;;;;;;41.80;37.13;;;15.90;99.90;;;;;;5045536;28;20491;-70
2021/09/17 06:36:39;;;;;;;40.03;36.20;;;15.90;99.90;;;;;;5039262;28;20466;-70
2021/09/17 06:39:08;;;;;;;41.23;37.00;;;16.10;99.90;;;;;;5040886;28;20479;-68
2021/09/17 06:41:35;;;;;;;40.27;36.00;;;16.10;99.90;;;;;;5035859;28;20563;-68
2021/09/17 06:44:02;;;;;;;38.90;34.90;;;16.20;99.90;;;;;;5040584;28;20488;-71
2021/09/17 06:46:29;;;;;;;38.93;35.10;;;16.30;99.90;;;;;;5044506;28;20463;-68
2021/09/17 06:48:59;;;;;;;42.37;35.00;;;16.40;99.90;;;;;;5037592;28;20471;-68
2021/09/17 06:51:26;;;;;;;38.27;34.67;;;16.40;99.90;;;;;;5049520;28;20448;-71
2021/09/17 06:53:54;;;;;;;36.50;32.80;;;16.50;99.90;;;;;;5042041;28;20811;-68
2021/09/17 06:56:21;;;;;;;37.80;34.30;;;16.50;99.90;;;;;;5043067;28;20804;-71
2021/09/17 06:58:49;;;;;;;36.80;33.20;;;16.60;99.90;;;;;;5042410;28;20821;-68
2021/09/17 07:01:16;;;;;;;35.90;32.50;;;16.70;99.90;;;;;;5039939;28;20468;-69
2021/09/17 07:03:43;;;;;;;35.67;32.13;;;16.70;99.90;;;;;;5035917;28;20574;-71
2021/09/17 07:06:11;;;;;;;38.03;34.17;;;16.70;99.90;;;;;;5042193;28;20455;-71
2021/09/17 07:08:39;;;;;;;37.53;34.10;;;16.60;99.90;;;;;;5042095;28;20484;-68
2021/09/17 07:11:06;;;;;;;38.83;33.40;;;16.70;99.90;;;;;;5039113;28;20966;-68
2021/09/17 07:13:33;;;;;;;38.07;34.37;;;16.70;99.90;;;;;;5046223;28;20567;-68
2021/09/17 07:16:00;;;;;;;39.20;34.70;;;16.70;99.90;;;;;;5037308;28;20465;-68
2021/09/17 07:18:28;;;;;;;38.77;34.77;;;16.90;99.90;;;;;;5039090;28;20467;-68
2021/09/17 07:20:56;;;;;;;37.13;33.60;;;17.10;99.90;;;;;;5041457;28;20460;-69
2021/09/17 07:23:25;;;;;;;36.83;33.03;;;17.20;99.90;;;;;;5038069;28;20837;-72
2021/09/17 07:25:52;;;;;;;38.70;33.33;;;17.10;99.90;;;;;;5041114;28;20571;-70
2021/09/17 07:28:20;;;;;;;36.20;32.70;;;17.20;99.90;;;;;;5035864;28;20547;-68
2021/09/17 07:30:47;;;;;;;37.83;34.23;;;17.30;99.90;;;;;;5041827;28;20459;-69
2021/09/17 07:33:15;;;;;;;36.63;33.20;;;17.30;99.90;;;;;;5041039;28;20466;-68
2021/09/17 07:35:43;;;;;;;34.53;31.30;;;17.40;99.90;;;;;;5039677;28;20550;-68
2021/09/17 07:38:10;;;;;;;35.30;31.97;;;17.60;99.90;;;;;;5046213;28;20464;-68
2021/09/17 07:40:39;;;;;;;33.50;30.50;;;17.60;99.90;;;;;;5043565;28;20967;-71
2021/09/17 07:43:06;;;;;;;33.93;30.90;;;17.70;99.90;;;;;;5039681;28;20483;-69
2021/09/17 07:45:33;;;;;;;33.93;30.47;;;17.70;99.90;;;;;;5037557;28;21039;-68
2021/09/17 07:48:02;;;;;;;33.47;29.90;;;17.70;99.90;;;;;;5033784;28;20497;-68
2021/09/17 07:50:30;;;;;;;34.93;31.43;;;17.80;99.90;;;;;;5037600;28;20461;-71
2021/09/17 07:52:58;;;;;;;33.80;30.70;;;17.80;99.90;;;;;;5051044;28;20461;-70
2021/09/17 07:55:25;;;;;;;35.27;31.87;;;17.80;99.90;;;;;;5040366;28;20951;-68
2021/09/17 07:57:53;;;;;;;34.37;31.20;;;17.90;99.90;;;;;;5037197;28;20522;-68
2021/09/17 08:00:21;;;;;;;33.40;30.30;;;18.00;99.90;;;;;;5040191;28;20476;-68
2021/09/17 08:02:48;;;;;;;33.93;30.83;;;18.10;99.90;;;;;;5036076;28;20845;-68
2021/09/17 08:05:15;;;;;;;33.73;30.77;;;18.20;99.90;;;;;;5037452;28;20473;-71
2021/09/17 08:07:42;;;;;;;32.43;29.57;;;18.20;99.90;;;;;;5050835;28;20459;-68
2021/09/17 08:10:11;;;;;;;35.43;32.20;;;18.30;99.90;;;;;;5035598;28;20503;-68
2021/09/17 08:12:39;;;;;;;34.77;31.37;;;18.20;99.90;;;;;;5038824;28;20459;-68
2021/09/17 08:15:09;;;;;;;34.33;31.37;;;18.50;99.90;;;;;;5044757;28;21057;-67
2021/09/17 08:17:36;;;;;;;33.20;30.20;;;18.50;99.90;;;;;;5039513;28;20489;-69
2021/09/17 08:20:04;;;;;;;34.23;31.17;;;18.60;99.90;;;;;;5036029;28;20452;-68
2021/09/17 08:22:31;;;;;;;34.37;30.73;;;18.60;99.90;;;;;;5042084;28;20458;-71
2021/09/17 08:24:58;;;;;;;31.37;28.57;;;18.50;99.90;;;;;;5042271;28;20913;-67
2021/09/17 08:27:26;;;;;;;32.63;29.23;;;18.60;99.90;;;;;;5042882;28;20455;-68
2021/09/17 08:29:53;;;;;;;35.63;31.83;;;18.60;99.90;;;;;;5037641;28;20650;-71
2021/09/17 08:32:22;;;;;;;34.77;31.13;;;18.80;99.90;;;;;;5040529;28;20465;-68
2021/09/17 08:34:48;;;;;;;32.87;29.67;;;18.80;99.90;;;;;;5041664;28;20490;-68
2021/09/17 08:37:15;;;;;;;34.10;29.60;;;18.90;99.90;;;;;;5034549;28;20455;-67
2021/09/17 08:39:42;;;;;;;33.97;30.87;;;19.00;99.90;;;;;;5041087;28;20482;-68
2021/09/17 08:42:09;;;;;;;37.80;31.97;;;19.00;99.90;;;;;;5039258;28;20471;-71
2021/09/17 08:44:37;;;;;;;43.17;32.37;;;19.00;99.90;;;;;;5039079;28;20483;-68
2021/09/17 08:47:05;;;;;;;35.83;31.93;;;19.00;99.90;;;;;;5041611;28;20865;-70
2021/09/17 08:49:36;;;;;;;34.97;31.87;;;19.20;99.90;;;;;;5042336;28;20483;-69
2021/09/17 08:52:04;;;;;;;35.03;31.60;;;19.30;99.90;;;;;;5036677;28;20486;-70
2021/09/17 08:54:33;;;;;;;35.20;31.73;;;19.60;99.90;;;;;;5036280;28;20459;-68
2021/09/17 08:57:00;;;;;;;34.93;31.70;;;19.60;99.90;;;;;;5036122;28;20547;-68
2021/09/17 08:59:28;;;;;;;40.23;34.10;;;19.60;99.90;;;;;;5038610;28;20468;-69
2021/09/17 09:01:55;;;;;;;36.33;31.57;;;19.80;99.90;;;;;;5040415;28;20457;-67
2021/09/17 09:04:31;;;;;;;35.80;32.53;;;19.80;99.90;;;;;;5039830;28;20582;-69
2021/09/17 09:07:06;;;;;;;35.10;31.80;;;19.80;99.90;;;;;;5043141;28;20778;-68
2021/09/17 09:09:33;;;;;;;37.27;33.37;;;20.10;99.90;;;;;;5035887;28;20483;-71
2021/09/17 09:12:00;;;;;;;34.27;31.10;;;20.50;99.90;;;;;;5029148;28;20457;-70
2021/09/17 09:14:28;;;;;;;35.43;32.13;;;20.70;99.90;;;;;;5040083;28;20467;-68
2021/09/17 09:16:56;;;;;;;35.57;32.03;;;20.90;99.90;;;;;;5039412;28;20825;-67
2021/09/17 09:19:27;;;;;;;35.10;31.67;;;20.90;99.90;;;;;;5041059;28;20470;-68
2021/09/17 09:22:09;;;;;;;34.60;31.20;;;21.10;99.90;;;;;;5039154;28;20455;-68
2021/09/17 09:24:42;;;;;;;35.80;32.40;;;20.90;99.90;;;;;;5038872;28;20506;-68
2021/09/17 09:27:12;;;;;;;36.00;32.23;;;20.80;99.90;;;;;;5040241;28;20464;-69
2021/09/17 09:29:40;;;;;;;35.50;32.00;;;21.20;99.90;;;;;;5036080;28;20466;-68
2021/09/17 09:32:07;;;;;;;33.93;30.67;;;21.10;99.90;;;;;;5037617;28;20460;-68
2021/09/17 09:34:50;;;;;;;35.13;31.90;;;21.00;99.90;;;;;;5036055;28;20826;-68
2021/09/17 09:37:22;;;;;;;36.20;32.43;;;21.30;99.90;;;;;;5041555;28;20453;-69
2021/09/17 09:39:52;;;;;;;34.43;31.23;;;21.40;99.90;;;;;;5048354;28;20967;-68
2021/09/17 09:42:20;;;;;;;36.03;32.37;;;21.50;99.90;;;;;;5037236;28;20471;-68
2021/09/17 09:45:17;;;;;;;33.97;30.90;;;21.80;99.90;;;;;;5033934;28;20490;-68
2021/09/17 09:47:46;;;;;;;34.53;30.23;;;22.40;99.90;;;;;;5038555;28;20556;-71
2021/09/17 09:50:16;;;;;;;34.83;31.30;;;22.70;99.90;;;;;;5040938;28;20475;-71
2021/09/17 09:52:43;;;;;;;34.20;31.10;;;23.10;99.90;;;;;;5037824;28;20456;-69
2021/09/17 09:55:13;;;;;;;32.07;29.10;;;23.00;99.90;;;;;;5036594;28;20511;-68
2021/09/17 09:57:42;;;;;;;33.87;30.70;;;23.70;99.90;;;;;;5040962;28;20571;-68
2021/09/17 10:00:12;;;;;;;35.23;31.90;;;24.10;99.90;;;;;;5032055;28;20862;-69
2021/09/17 10:02:41;;;;;;;31.30;28.50;;;24.80;99.90;;;;;;5035161;28;20492;-69
2021/09/17 10:05:09;;;;;;;31.97;29.07;;;25.40;99.90;;;;;;5034148;28;20483;-71
2021/09/17 10:07:37;;;;;;;31.20;28.47;;;25.70;99.90;;;;;;5029537;28;20460;-68
2021/09/17 10:10:06;;;;;;;31.67;28.83;;;25.20;99.90;;;;;;5033640;28;20481;-69
2021/09/17 10:12:35;;;;;;;31.40;28.60;;;25.00;99.90;;;;;;5052246;28;20451;-69
2021/09/17 10:15:02;;;;;;;30.77;28.07;;;25.20;99.90;;;;;;5034012;28;20470;-69
2021/09/17 10:17:31;;;;;;;30.07;27.67;;;25.30;99.90;;;;;;5038733;28;20462;-70
2021/09/17 10:20:01;;;;;;;33.53;30.43;;;25.00;99.90;;;;;;5040855;28;20491;-69
2021/09/17 10:22:30;;;;;;;29.90;27.47;;;24.70;99.90;;;;;;5037501;28;20452;-69
2021/09/17 10:25:06;;;;;;;30.43;27.63;;;24.30;99.90;;;;;;5040935;28;20488;-69
2021/09/17 10:27:37;;;;;;;32.00;29.07;;;24.40;99.90;;;;;;5037805;28;20561;-69
2021/09/17 10:30:06;;;;;;;30.30;27.60;;;24.40;99.90;;;;;;5046491;28;20791;-68
2021/09/17 10:32:36;;;;;;;30.77;28.00;;;24.80;99.90;;;;;;5039284;28;20460;-68
2021/09/17 10:35:10;;;;;;;30.80;28.03;;;25.40;99.90;;;;;;5035634;28;20487;-69
2021/09/17 10:37:56;;;;;;;30.60;27.90;;;25.80;99.90;;;;;;5033472;28;20551;-69
2021/09/17 10:40:51;;;;;;;29.43;26.80;;;25.80;99.90;;;;;;5044084;28;20977;-69
2021/09/17 10:43:31;;;;;;;29.50;26.50;;;25.90;99.90;;;;;;5041587;28;20455;-71
2021/09/17 10:46:00;;;;;;;29.70;27.00;;;26.20;99.90;;;;;;5042302;28;20491;-69
2021/09/17 10:48:29;;;;;;;30.97;28.13;;;26.10;99.90;;;;;;5051609;28;20755;-69
2021/09/17 10:51:02;;;;;;;29.47;26.50;;;25.80;99.90;;;;;;5036816;28;20463;-71
2021/09/17 10:54:03;;;;;;;29.00;26.50;;;26.10;99.90;;;;;;5052479;28;20552;-69
2021/09/17 10:57:01;;;;;;;28.50;26.10;;;26.50;99.90;;;;;;5054867;28;20451;-69
2021/09/17 10:59:43;;;;;;;29.87;27.13;;;27.50;99.90;;;;;;5044554;28;20456;-72
2021/09/17 11:02:11;;;;;;;30.37;27.40;;;27.30;99.90;;;;;;5059836;28;20463;-70
2021/09/17 11:04:40;;;;;;;30.00;27.20;;;27.20;99.90;;;;;;5047958;28;20499;-69
2021/09/17 11:07:35;;;;;;;29.93;27.13;;;27.00;99.90;;;;;;5050378;28;20816;-69
2021/09/17 11:10:08;;;;;;;28.77;26.03;;;27.00;99.90;;;;;;5047090;28;20482;-70
2021/09/17 11:12:38;;;;;;;28.30;25.70;;;26.70;99.90;;;;;;5042874;28;20483;-70
2021/09/17 11:15:09;;;;;;;27.87;25.37;;;26.40;99.90;;;;;;5035667;28;20456;-71
2021/09/17 11:17:46;;;;;;;29.67;26.97;;;26.10;99.90;;;;;;5039088;28;20466;-71
2021/09/17 11:20:20;;;;;;;30.43;27.70;;;26.20;99.90;;;;;;5047692;28;20449;-71
2021/09/17 11:22:54;;;;;;;29.80;27.13;;;26.00;99.90;;;;;;5047276;28;20875;-70
2021/09/17 11:25:30;;;;;;;29.50;26.90;;;25.70;99.90;;;;;;5046601;28;20495;-72
2021/09/17 11:27:57;;;;;;;29.33;26.30;;;26.50;99.90;;;;;;5053935;28;20547;-69
2021/09/17 11:30:28;;;;;;;29.40;26.70;;;27.10;99.90;;;;;;5044136;28;20870;-70
2021/09/17 11:32:55;;;;;;;28.50;25.80;;;26.60;99.90;;;;;;5042696;28;20459;-70
2021/09/17 11:35:22;;;;;;;29.27;26.63;;;27.30;99.90;;;;;;5043302;28;20496;-71
2021/09/17 11:37:54;;;;;;;27.83;25.47;;;27.80;99.90;;;;;;5043807;28;20967;-70
2021/09/17 11:40:22;;;;;;;27.73;25.13;;;27.90;99.90;;;;;;5037157;28;20460;-72
2021/09/17 11:42:50;;;;;;;29.00;26.60;;;28.00;99.90;;;;;;5043174;28;20611;-71
2021/09/17 11:45:19;;;;;;;26.60;24.27;;;28.00;99.90;;;;;;5040358;28;20488;-70
2021/09/17 11:47:50;;;;;;;28.00;25.53;;;28.20;99.90;;;;;;5041640;28;20818;-72
2021/09/17 11:50:19;;;;;;;28.00;25.60;;;28.10;99.90;;;;;;5043544;28;20462;-70
2021/09/17 11:52:48;;;;;;;29.83;27.20;;;28.00;99.90;;;;;;5046361;28;20529;-71
2021/09/17 11:55:18;;;;;;;29.30;26.73;;;27.70;99.90;;;;;;5043832;28;20464;-70
2021/09/17 11:57:46;;;;;;;30.33;27.63;;;27.30;99.90;;;;;;5046105;28;20812;-70
2021/09/17 12:00:15;;;;;;;28.17;25.67;;;27.50;99.90;;;;;;5043601;28;20464;-70
2021/09/17 12:02:44;;;;;;;30.20;27.33;;;27.60;99.90;;;;;;5049118;28;20470;-71
2021/09/17 12:05:17;;;;;;;31.80;28.90;;;27.40;99.90;;;;;;5047286;28;20484;-71
2021/09/17 12:07:48;;;;;;;31.77;28.27;;;27.70;99.90;;;;;;5043514;28;20814;-70
2021/09/17 12:10:17;;;;;;;30.20;27.40;;;27.60;99.90;;;;;;5042637;28;20529;-71
2021/09/17 12:12:47;;;;;;;29.77;27.00;;;28.00;99.90;;;;;;5041933;28;20984;-71
2021/09/17 12:15:24;;;;;;;31.27;28.47;;;28.70;99.90;;;;;;5044016;28;20468;-72
2021/09/17 12:17:53;;;;;;;29.50;26.77;;;28.80;99.90;;;;;;5042039;28;20468;-71
2021/09/17 12:20:23;;;;;;;31.40;28.70;;;29.10;99.90;;;;;;5046087;28;20967;-71
2021/09/17 12:22:58;;;;;;;32.23;28.70;;;28.80;99.90;;;;;;5036275;28;20465;-70
2021/09/17 12:25:31;;;;;;;30.73;27.90;;;28.60;99.90;;;;;;5040543;28;20479;-73
2021/09/17 12:28:00;;;;;;;29.10;26.37;;;29.00;99.90;;;;;;5048671;28;20458;-70
2021/09/17 12:30:31;;;;;;;30.70;28.00;;;29.10;99.90;;;;;;5045884;28;20878;-71
2021/09/17 12:33:08;;;;;;;30.37;27.57;;;29.10;99.90;;;;;;5040117;28;22048;-71
2021/09/17 12:35:37;;;;;;;32.97;29.40;;;28.90;99.90;;;;;;5047387;28;20507;-72